createdAt,value
2019-02-21T00:01:59.766Z,8.70
2019-02-21T00:04:28.017Z,9.43
2019-02-21T00:06:55.702Z,8.97
2019-02-21T00:09:24.190Z,8.80
2019-02-21T00:11:52.493Z,8.57
2019-02-21T00:14:21.061Z,8.37
2019-02-21T00:16:49.446Z,9.10
2019-02-21T00:19:17.363Z,8.80
2019-02-21T00:21:45.437Z,8.43
2019-02-21T00:24:14.174Z,8.27
2019-02-21T00:26:44.150Z,8.50
2019-02-21T00:29:12.459Z,8.93
2019-02-21T00:31:40.334Z,8.80
2019-02-21T00:34:08.348Z,8.73
2019-02-21T00:36:36.270Z,8.63
2019-02-21T00:39:05.373Z,8.07
2019-02-21T00:41:33.373Z,8.07
2019-02-21T00:44:02.014Z,8.33
2019-02-21T00:46:29.666Z,8.80
2019-02-21T00:48:57.958Z,8.83
2019-02-21T00:51:25.929Z,8.47
2019-02-21T00:53:53.592Z,8.70
2019-02-21T00:56:21.618Z,8.60
2019-02-21T00:58:49.598Z,8.00
2019-02-21T01:01:17.532Z,8.40
2019-02-21T01:03:45.534Z,8.53
2019-02-21T01:06:13.493Z,8.03
2019-02-21T01:08:41.429Z,8.30
2019-02-21T01:11:09.484Z,8.77
2019-02-21T01:13:38.162Z,8.50
2019-02-21T01:16:06.846Z,7.80
2019-02-21T01:18:35.155Z,8.80
2019-02-21T01:21:03.443Z,8.20
2019-02-21T01:23:31.093Z,8.80
2019-02-21T01:25:59.337Z,8.77
2019-02-21T01:28:27.265Z,9.20
2019-02-21T01:30:57.132Z,8.80
2019-02-21T01:33:25.412Z,8.17
2019-02-21T01:35:53.446Z,9.30
2019-02-21T01:38:21.443Z,8.60
2019-02-21T01:40:49.676Z,8.03
2019-02-21T01:43:17.601Z,8.30
2019-02-21T01:45:45.628Z,8.13
2019-02-21T01:48:13.536Z,8.33
2019-02-21T01:50:41.206Z,8.30
2019-02-21T01:53:08.861Z,8.33
2019-02-21T01:55:36.882Z,8.77
2019-02-21T01:58:04.543Z,9.00
2019-02-21T02:00:33.091Z,9.13
2019-02-21T02:03:00.749Z,8.60
2019-02-21T02:05:28.437Z,8.00
2019-02-21T02:07:56.446Z,8.70
2019-02-21T02:10:24.730Z,8.40
2019-02-21T02:12:52.957Z,8.30
2019-02-21T02:15:20.969Z,8.23
2019-02-21T02:17:49.011Z,7.60
2019-02-21T02:20:17.326Z,8.30
2019-02-21T02:22:45.226Z,8.03
2019-02-21T02:25:13.214Z,8.47
2019-02-21T02:27:41.184Z,8.77
2019-02-21T02:30:09.014Z,9.17
2019-02-21T02:32:37.168Z,7.97
2019-02-21T02:35:05.241Z,8.50
2019-02-21T02:37:32.898Z,9.20
2019-02-21T02:40:01.234Z,8.90
2019-02-21T02:42:29.245Z,10.10
2019-02-21T02:44:57.181Z,9.33
2019-02-21T02:47:25.159Z,8.97
2019-02-21T02:49:53.361Z,10.00
2019-02-21T02:52:21.610Z,8.53
2019-02-21T02:54:49.818Z,8.60
2019-02-21T02:57:17.861Z,8.90
2019-02-21T02:59:45.513Z,8.40
2019-02-21T03:02:13.566Z,8.83
2019-02-21T03:04:41.885Z,8.83
2019-02-21T03:07:09.861Z,9.13
2019-02-21T03:09:37.796Z,9.37
2019-02-21T03:12:05.791Z,8.50
2019-02-21T03:14:34.487Z,8.37
2019-02-21T03:17:02.750Z,9.13
2019-02-21T03:19:30.756Z,8.83
2019-02-21T03:21:58.441Z,8.70
2019-02-21T03:24:26.474Z,8.60
2019-02-21T03:26:54.498Z,8.80
2019-02-21T03:29:22.478Z,8.83
2019-02-21T03:31:55.032Z,8.70
2019-02-21T03:34:19.902Z,8.97
2019-02-21T03:36:48.222Z,8.50
2019-02-21T03:39:16.418Z,8.13
2019-02-21T03:41:44.398Z,8.60
2019-02-21T03:44:12.452Z,9.37
2019-02-21T03:46:40.115Z,8.70
2019-02-21T03:49:08.055Z,8.77
2019-02-21T03:51:36.286Z,8.30
2019-02-21T03:54:04.558Z,8.83
2019-02-21T03:56:33.241Z,8.80
2019-02-21T03:59:01.427Z,8.70
2019-02-21T04:01:29.086Z,9.63
2019-02-21T04:03:57.116Z,9.33
2019-02-21T04:06:24.775Z,9.00
2019-02-21T04:08:52.748Z,9.00
2019-02-21T04:11:20.663Z,9.43
2019-02-21T04:13:48.886Z,9.43
2019-02-21T04:16:16.904Z,9.13
2019-02-21T04:18:44.546Z,9.80
2019-02-21T04:21:12.562Z,8.83
2019-02-21T04:23:40.805Z,8.90
2019-02-21T04:26:08.853Z,8.30
2019-02-21T04:28:36.842Z,8.70
2019-02-21T04:31:05.133Z,8.47
2019-02-21T04:33:34.438Z,9.17
2019-02-21T04:36:02.722Z,8.50
2019-02-21T04:38:30.392Z,9.83
2019-02-21T04:40:58.333Z,8.83
2019-02-21T04:43:26.308Z,8.87
2019-02-21T04:45:54.775Z,8.80
2019-02-21T04:48:23.177Z,8.30
2019-02-21T04:50:54.393Z,9.20
2019-02-21T04:53:21.198Z,8.53
2019-02-21T04:55:48.875Z,9.00
2019-02-21T04:58:17.082Z,9.60
2019-02-21T05:00:45.129Z,9.00
2019-02-21T05:03:13.179Z,8.80
2019-02-21T05:05:40.870Z,8.93
2019-02-21T05:08:09.574Z,9.30
2019-02-21T05:10:37.361Z,8.53
2019-02-21T05:13:05.370Z,8.93
2019-02-21T05:15:33.054Z,9.23
2019-02-21T05:18:01.015Z,9.20
2019-02-21T05:20:29.030Z,9.13
2019-02-21T05:22:57.356Z,9.07
2019-02-21T05:25:25.748Z,8.23
2019-02-21T05:27:57.925Z,8.80
2019-02-21T05:30:27.480Z,8.70
2019-02-21T05:33:23.217Z,8.40
2019-02-21T05:36:00.237Z,8.13
2019-02-21T05:38:39.586Z,9.03
2019-02-21T05:41:32.680Z,8.20
2019-02-21T05:44:22.851Z,8.50
2019-02-21T05:46:57.563Z,7.97
2019-02-21T05:49:57.002Z,7.83
2019-02-21T05:52:40.650Z,8.40
2019-02-21T05:55:16.977Z,8.10
2019-02-21T05:57:56.138Z,8.17
2019-02-21T06:00:45.969Z,8.63
2019-02-21T06:03:31.085Z,8.47
2019-02-21T06:06:17.215Z,9.30
2019-02-21T06:09:03.189Z,8.77
2019-02-21T06:11:40.969Z,8.67
2019-02-21T06:14:33.888Z,9.30
2019-02-21T06:17:26.998Z,8.73
2019-02-21T06:20:13.056Z,9.13
2019-02-21T06:22:48.153Z,8.27
2019-02-21T06:25:50.793Z,8.67
2019-02-21T06:28:14.526Z,8.63
2019-02-21T06:30:49.588Z,8.60
2019-02-21T06:33:18.185Z,9.67
2019-02-21T06:35:46.155Z,8.80
2019-02-21T06:38:14.066Z,8.30
2019-02-21T06:40:42.116Z,9.80
2019-02-21T06:43:10.049Z,8.57
2019-02-21T06:45:37.700Z,8.40
2019-02-21T06:48:05.718Z,8.83
2019-02-21T06:50:33.657Z,9.33
2019-02-21T06:53:01.629Z,9.03
2019-02-21T06:55:29.567Z,10.80
2019-02-21T06:57:57.842Z,10.10
2019-02-21T07:00:25.881Z,10.00
2019-02-21T07:02:54.440Z,9.60
2019-02-21T07:05:22.461Z,10.43
2019-02-21T07:07:50.793Z,9.90
2019-02-21T07:10:18.823Z,9.80
2019-02-21T07:12:47.190Z,10.10
2019-02-21T07:15:15.677Z,10.00
2019-02-21T07:17:49.362Z,10.50
2019-02-21T07:20:13.613Z,10.10
2019-02-21T07:22:44.717Z,10.50
2019-02-21T07:25:22.596Z,10.20
2019-02-21T07:27:50.545Z,10.30
2019-02-21T07:30:21.116Z,10.00
2019-02-21T07:32:48.552Z,10.10
2019-02-21T07:35:16.851Z,10.10
2019-02-21T07:37:44.813Z,9.40
2019-02-21T07:40:19.746Z,10.80
2019-02-21T07:42:42.274Z,10.63
2019-02-21T07:45:10.400Z,9.73
2019-02-21T07:47:38.818Z,10.20
2019-02-21T07:50:06.778Z,10.37
2019-02-21T07:52:34.450Z,10.60
2019-02-21T07:55:02.678Z,10.90
2019-02-21T07:57:31.109Z,10.80
2019-02-21T07:59:59.057Z,11.80
2019-02-21T08:02:27.363Z,10.60
2019-02-21T08:04:55.945Z,12.30
2019-02-21T08:07:26.392Z,11.80
2019-02-21T08:09:54.300Z,10.63
2019-02-21T08:12:23.314Z,11.73
2019-02-21T08:14:51.226Z,12.23
2019-02-21T08:17:19.494Z,13.17
2019-02-21T08:19:47.663Z,14.00
2019-02-21T08:22:16.032Z,14.67
2019-02-21T08:24:43.983Z,14.03
2019-02-21T08:27:12.029Z,13.80
2019-02-21T08:29:40.344Z,13.13
2019-02-21T08:32:08.388Z,14.10
2019-02-21T08:34:48.054Z,14.37
2019-02-21T08:37:15.392Z,12.77
2019-02-21T08:39:43.317Z,14.20
2019-02-21T08:42:11.965Z,13.20
2019-02-21T08:44:40.202Z,14.27
2019-02-21T08:47:08.446Z,13.40
2019-02-21T08:49:36.693Z,14.03
2019-02-21T08:52:04.678Z,14.27
2019-02-21T08:54:33.146Z,14.10
2019-02-21T08:57:01.185Z,14.10
2019-02-21T08:59:28.863Z,14.07
2019-02-21T09:01:56.914Z,13.40
2019-02-21T09:04:27.717Z,13.70
2019-02-21T09:06:54.943Z,13.63
2019-02-21T09:09:23.194Z,13.67
2019-02-21T09:11:53.751Z,13.50
2019-02-21T09:14:21.420Z,13.00
2019-02-21T09:16:49.542Z,13.23
2019-02-21T09:19:17.490Z,13.50
2019-02-21T09:21:45.158Z,13.20
2019-02-21T09:24:13.949Z,13.90
2019-02-21T09:26:42.910Z,13.93
2019-02-21T09:29:10.689Z,12.87
2019-02-21T09:31:38.628Z,13.50
2019-02-21T09:34:06.657Z,13.50
2019-02-21T09:36:34.600Z,13.70
2019-02-21T09:39:02.285Z,13.93
2019-02-21T09:41:30.682Z,13.00
2019-02-21T09:43:58.361Z,13.53
2019-02-21T09:46:26.377Z,13.53
2019-02-21T09:48:54.372Z,14.10
2019-02-21T09:51:22.339Z,13.83
2019-02-21T09:53:50.297Z,13.57
2019-02-21T09:56:29.532Z,13.87
2019-02-21T09:58:48.176Z,13.50
2019-02-21T10:01:16.157Z,14.10
2019-02-21T10:03:44.613Z,13.23
2019-02-21T10:06:12.650Z,14.13
2019-02-21T10:08:40.647Z,13.30
2019-02-21T10:11:11.287Z,13.90
2019-02-21T10:13:38.313Z,13.67
2019-02-21T10:16:06.481Z,14.40
2019-02-21T10:18:35.058Z,13.80
2019-02-21T10:21:03.129Z,13.20
2019-02-21T10:23:31.720Z,13.30
2019-02-21T10:25:59.392Z,14.33
2019-02-21T10:28:27.713Z,14.57
2019-02-21T10:30:55.672Z,14.53
2019-02-21T10:33:25.356Z,13.87
2019-02-21T10:35:53.373Z,14.30
2019-02-21T10:38:21.034Z,15.33
2019-02-21T10:40:49.313Z,15.70
2019-02-21T10:43:17.046Z,16.00
2019-02-21T10:45:47.765Z,15.70
2019-02-21T10:48:14.981Z,16.80
2019-02-21T10:50:42.934Z,17.23
2019-02-21T10:53:10.886Z,18.20
2019-02-21T10:55:38.893Z,18.63
2019-02-21T10:58:07.269Z,18.77
2019-02-21T11:00:35.696Z,17.80
2019-02-21T11:03:03.665Z,17.80
2019-02-21T11:05:31.344Z,18.07
2019-02-21T11:07:59.301Z,18.67
2019-02-21T11:10:27.786Z,18.63
2019-02-21T11:12:55.913Z,18.90
2019-02-21T11:15:24.146Z,18.57
2019-02-21T11:17:52.457Z,18.30
2019-02-21T11:20:20.145Z,19.13
2019-02-21T11:22:48.290Z,18.37
2019-02-21T11:25:16.345Z,17.77
2019-02-21T11:27:44.601Z,18.93
2019-02-21T11:30:13.810Z,21.03
2019-02-21T11:32:42.018Z,20.27
2019-02-21T11:35:10.050Z,22.10
2019-02-21T11:37:44.224Z,21.53
2019-02-21T11:40:08.398Z,21.33
2019-02-21T11:42:36.353Z,21.30
2019-02-21T11:45:04.513Z,21.70
2019-02-21T11:47:32.701Z,21.10
2019-02-21T11:50:01.082Z,21.50
2019-02-21T11:52:29.160Z,22.90
2019-02-21T11:54:57.181Z,22.20
2019-02-21T11:57:24.867Z,21.30
2019-02-21T11:59:52.797Z,21.30
2019-02-21T12:02:21.127Z,22.30
2019-02-21T12:04:49.141Z,22.63
2019-02-21T12:07:16.883Z,22.37
2019-02-21T12:09:44.813Z,22.93
2019-02-21T12:12:12.865Z,21.70
2019-02-21T12:14:40.826Z,21.90
2019-02-21T12:17:08.801Z,22.63
2019-02-21T12:19:37.027Z,27.70
2019-02-21T12:22:04.973Z,23.97
2019-02-21T12:24:32.822Z,24.43
2019-02-21T12:27:00.794Z,25.40
2019-02-21T12:29:28.994Z,24.60
2019-02-21T12:31:57.369Z,22.50
2019-02-21T12:34:25.750Z,23.90
2019-02-21T12:36:53.430Z,27.27
2019-02-21T12:39:21.753Z,26.50
2019-02-21T12:41:50.278Z,25.87
2019-02-21T12:44:18.283Z,23.83
2019-02-21T12:46:46.621Z,21.20
2019-02-21T12:49:14.649Z,21.23
2019-02-21T12:51:42.970Z,19.87
2019-02-21T12:54:11.250Z,18.30
2019-02-21T12:56:38.918Z,19.30
2019-02-21T12:59:07.262Z,18.83
2019-02-21T13:01:35.231Z,18.13
2019-02-21T13:04:03.229Z,17.17
2019-02-21T13:06:31.309Z,17.10
2019-02-21T13:08:59.328Z,17.27
2019-02-21T13:11:27.333Z,16.37
2019-02-21T13:13:55.535Z,15.40
2019-02-21T13:16:23.782Z,16.07
2019-02-21T13:18:51.505Z,17.80
2019-02-21T13:21:19.160Z,17.17
2019-02-21T13:23:47.157Z,16.27
2019-02-21T13:26:14.849Z,16.50
2019-02-21T13:28:42.597Z,16.63
2019-02-21T13:31:10.583Z,16.93
2019-02-21T13:33:38.626Z,17.70
2019-02-21T13:36:06.585Z,19.17
2019-02-21T13:38:34.597Z,19.17
2019-02-21T13:41:02.627Z,19.07
2019-02-21T13:43:30.628Z,16.90
2019-02-21T13:45:59.149Z,16.40
2019-02-21T13:48:26.830Z,16.80
2019-02-21T13:50:54.485Z,17.07
2019-02-21T13:53:22.158Z,17.67
2019-02-21T13:55:51.064Z,16.47
2019-02-21T13:58:19.161Z,17.23
2019-02-21T14:00:47.433Z,18.17
2019-02-21T14:03:15.789Z,17.40
2019-02-21T14:05:44.403Z,17.23
2019-02-21T14:08:12.681Z,17.70
2019-02-21T14:10:40.354Z,17.77
2019-02-21T14:13:08.013Z,18.80
2019-02-21T14:15:36.045Z,17.60
2019-02-21T14:18:03.966Z,18.10
2019-02-21T14:20:31.638Z,18.70
2019-02-21T14:22:59.317Z,19.40
2019-02-21T14:25:28.449Z,18.47
2019-02-21T14:27:56.381Z,20.10
2019-02-21T14:30:24.405Z,19.90
2019-02-21T14:32:52.133Z,17.90
2019-02-21T14:35:20.754Z,17.70
2019-02-21T14:37:49.026Z,19.07
2019-02-21T14:40:17.019Z,18.23
2019-02-21T14:42:45.430Z,18.73
2019-02-21T14:45:13.881Z,19.17
2019-02-21T14:47:42.104Z,18.60
2019-02-21T14:50:09.954Z,18.47
2019-02-21T14:52:37.625Z,17.60
2019-02-21T14:55:06.004Z,18.33
2019-02-21T14:57:41.025Z,17.10
2019-02-21T15:00:03.193Z,17.60
2019-02-21T15:02:31.721Z,18.07
2019-02-21T15:04:59.737Z,18.43
2019-02-21T15:07:27.728Z,17.00
2019-02-21T15:09:56.109Z,17.93
2019-02-21T15:12:24.162Z,18.17
2019-02-21T15:14:52.466Z,16.20
2019-02-21T15:17:20.802Z,17.60
2019-02-21T15:19:49.009Z,17.97
2019-02-21T15:22:16.709Z,17.20
2019-02-21T15:24:45.038Z,18.57
2019-02-21T15:27:13.002Z,16.80
2019-02-21T15:29:41.755Z,17.93
2019-02-21T15:32:11.535Z,17.40
2019-02-21T15:34:39.856Z,17.20
2019-02-21T15:37:07.765Z,18.07
2019-02-21T15:39:35.449Z,16.40
2019-02-21T15:42:03.535Z,18.10
2019-02-21T15:44:31.532Z,17.93
2019-02-21T15:47:00.149Z,17.23
2019-02-21T15:49:28.187Z,16.57
2019-02-21T15:51:56.165Z,15.37
2019-02-21T15:54:24.366Z,15.20
2019-02-21T15:56:52.313Z,15.40
2019-02-21T15:59:20.262Z,14.67
2019-02-21T16:01:48.253Z,14.33
2019-02-21T16:04:16.604Z,14.23
2019-02-21T16:06:51.063Z,14.70
2019-02-21T16:09:16.495Z,13.47
2019-02-21T16:11:44.465Z,14.67
2019-02-21T16:14:12.469Z,15.13
2019-02-21T16:16:40.141Z,14.63
2019-02-21T16:19:07.818Z,15.10
2019-02-21T16:21:36.140Z,16.43
2019-02-21T16:24:03.883Z,15.23
2019-02-21T16:26:32.187Z,15.57
2019-02-21T16:29:00.125Z,14.87
2019-02-21T16:31:28.406Z,15.37
2019-02-21T16:33:56.389Z,14.43
2019-02-21T16:36:24.057Z,14.83
2019-02-21T16:38:51.812Z,16.40
2019-02-21T16:41:20.093Z,16.20
2019-02-21T16:43:48.198Z,16.03
2019-02-21T16:46:15.860Z,15.73
2019-02-21T16:48:43.791Z,14.87
2019-02-21T16:51:11.555Z,15.13
2019-02-21T16:53:39.949Z,16.60
2019-02-21T16:56:07.992Z,15.70
2019-02-21T16:58:36.021Z,15.87
2019-02-21T17:01:04.126Z,14.70
2019-02-21T17:03:32.206Z,14.73
2019-02-21T17:05:59.852Z,14.77
2019-02-21T17:08:27.793Z,13.10
2019-02-21T17:10:55.497Z,11.90
2019-02-21T17:13:23.521Z,11.57
2019-02-21T17:15:52.272Z,12.80
2019-02-21T17:18:20.442Z,12.60
2019-02-21T17:20:48.657Z,13.00
2019-02-21T17:23:22.905Z,12.27
2019-02-21T17:25:46.347Z,12.87
2019-02-21T17:28:14.009Z,12.50
2019-02-21T17:30:42.333Z,13.20
2019-02-21T17:33:10.714Z,12.57
2019-02-21T17:35:38.817Z,12.23
2019-02-21T17:38:06.797Z,12.57
2019-02-21T17:40:35.209Z,12.07
2019-02-21T17:43:03.182Z,12.50
2019-02-21T17:45:31.151Z,12.10
2019-02-21T17:47:59.098Z,11.47
2019-02-21T17:50:27.330Z,11.27
2019-02-21T17:52:55.007Z,12.37
2019-02-21T17:55:23.166Z,12.10
2019-02-21T17:57:51.248Z,11.70
2019-02-21T18:00:21.478Z,10.73
2019-02-21T18:02:49.398Z,11.77
2019-02-21T18:05:17.975Z,11.40
2019-02-21T18:07:45.983Z,10.47
2019-02-21T18:10:14.091Z,10.20
2019-02-21T18:12:42.061Z,9.90
2019-02-21T18:15:10.036Z,10.73
2019-02-21T18:17:38.068Z,12.47
2019-02-21T18:20:06.497Z,11.40
2019-02-21T18:22:34.810Z,12.77
2019-02-21T18:25:02.747Z,11.70
2019-02-21T18:27:30.409Z,11.40
2019-02-21T18:29:58.436Z,12.10
2019-02-21T18:32:26.775Z,11.80
2019-02-21T18:34:54.718Z,12.70
2019-02-21T18:37:22.726Z,14.07
2019-02-21T18:39:50.745Z,15.80
2019-02-21T18:42:19.040Z,16.00
2019-02-21T18:44:47.316Z,15.70
2019-02-21T18:47:15.689Z,16.53
2019-02-21T18:49:43.704Z,17.60
2019-02-21T18:52:11.406Z,17.13
2019-02-21T18:54:39.924Z,16.00
2019-02-21T18:57:07.703Z,16.73
2019-02-21T18:59:35.738Z,16.83
2019-02-21T19:02:03.716Z,16.40
2019-02-21T19:04:32.342Z,15.57
2019-02-21T19:07:01.125Z,14.13
2019-02-21T19:09:29.462Z,14.67
2019-02-21T19:11:57.926Z,14.80
2019-02-21T19:14:25.938Z,14.50
2019-02-21T19:16:54.284Z,14.23
2019-02-21T19:19:22.557Z,13.93
2019-02-21T19:21:51.085Z,13.60
2019-02-21T19:24:19.678Z,15.43
2019-02-21T19:26:48.123Z,15.20
2019-02-21T19:29:16.046Z,16.20
2019-02-21T19:31:44.062Z,16.70
2019-02-21T19:34:12.185Z,16.00
2019-02-21T19:36:39.926Z,16.30
2019-02-21T19:39:08.057Z,16.80
2019-02-21T19:41:35.936Z,16.53
2019-02-21T19:44:08.829Z,17.50
2019-02-21T19:46:33.389Z,17.53
2019-02-21T19:49:01.470Z,17.80
2019-02-21T19:51:29.146Z,16.53
2019-02-21T19:53:57.070Z,16.80
2019-02-21T19:56:25.523Z,17.70
2019-02-21T19:58:54.210Z,18.40
2019-02-21T20:01:22.254Z,17.13
2019-02-21T20:03:50.189Z,17.90
2019-02-21T20:06:18.130Z,17.00
2019-02-21T20:08:46.388Z,16.80
2019-02-21T20:11:14.145Z,17.37
2019-02-21T20:13:42.456Z,16.60
2019-02-21T20:16:10.705Z,16.37
2019-02-21T20:18:38.896Z,17.57
2019-02-21T20:21:07.361Z,17.10
2019-02-21T20:23:35.509Z,16.90
2019-02-21T20:26:03.199Z,17.43
2019-02-21T20:28:30.957Z,17.80
2019-02-21T20:30:58.889Z,17.20
2019-02-21T20:33:26.540Z,16.40
2019-02-21T20:35:54.300Z,17.20
2019-02-21T20:38:31.757Z,16.77
2019-02-21T20:40:52.360Z,18.67
2019-02-21T20:43:20.362Z,17.33
2019-02-21T20:45:53.069Z,17.60
2019-02-21T20:48:19.219Z,18.00
2019-02-21T20:50:56.404Z,18.23
2019-02-21T20:53:16.691Z,17.20
2019-02-21T20:55:44.558Z,16.60
2019-02-21T20:58:13.114Z,17.40
2019-02-21T21:00:41.147Z,18.13
2019-02-21T21:03:08.810Z,17.40
2019-02-21T21:05:36.765Z,17.17
2019-02-21T21:08:04.848Z,16.40
2019-02-21T21:10:32.530Z,18.10
2019-02-21T21:13:00.545Z,18.10
2019-02-21T21:15:28.900Z,18.83
2019-02-21T21:17:56.919Z,18.33
2019-02-21T21:20:26.061Z,16.87
2019-02-21T21:22:54.247Z,17.57
2019-02-21T21:25:22.245Z,16.97
2019-02-21T21:27:49.923Z,18.30
2019-02-21T21:30:17.943Z,17.40
2019-02-21T21:32:46.226Z,18.50
2019-02-21T21:35:14.528Z,17.40
2019-02-21T21:37:42.314Z,17.10
2019-02-21T21:40:11.409Z,18.43
2019-02-21T21:42:40.080Z,18.47
2019-02-21T21:45:09.570Z,18.13
2019-02-21T21:47:37.525Z,18.80
2019-02-21T21:50:05.492Z,17.80
2019-02-21T21:52:33.240Z,19.10
2019-02-21T21:55:01.294Z,18.77
2019-02-21T21:57:29.271Z,18.50
2019-02-21T21:59:57.197Z,18.63
2019-02-21T22:02:25.157Z,20.03
2019-02-21T22:04:52.939Z,21.17
2019-02-21T22:07:24.558Z,18.10
2019-02-21T22:09:53.921Z,20.43
2019-02-21T22:12:22.126Z,21.60
2019-02-21T22:14:50.126Z,21.17
2019-02-21T22:17:18.612Z,20.33
2019-02-21T22:19:46.923Z,21.60
2019-02-21T22:22:14.876Z,22.63
2019-02-21T22:24:42.597Z,24.00
2019-02-21T22:27:11.204Z,23.40
2019-02-21T22:29:39.206Z,23.97
2019-02-21T22:32:07.301Z,24.20
2019-02-21T22:34:35.405Z,24.60
2019-02-21T22:37:03.080Z,24.83
2019-02-21T22:39:31.308Z,25.03
2019-02-21T22:41:58.981Z,25.40
2019-02-21T22:44:26.641Z,25.40
2019-02-21T22:46:54.905Z,25.53
2019-02-21T22:49:23.057Z,24.80
2019-02-21T22:51:51.301Z,25.80
2019-02-21T22:54:19.238Z,25.47
2019-02-21T22:56:47.212Z,26.93
2019-02-21T22:59:14.890Z,26.67
2019-02-21T23:01:44.254Z,26.20
2019-02-21T23:04:26.663Z,27.30
2019-02-21T23:07:06.257Z,28.10
2019-02-21T23:09:34.381Z,28.43
2019-02-21T23:12:02.703Z,27.40
2019-02-21T23:14:30.989Z,28.87
2019-02-21T23:16:58.656Z,29.10
2019-02-21T23:19:27.091Z,28.17
2019-02-21T23:21:55.191Z,30.00
2019-02-21T23:24:23.127Z,28.83
2019-02-21T23:26:51.077Z,29.87
2019-02-21T23:29:19.310Z,28.43
2019-02-21T23:31:46.981Z,29.00
2019-02-21T23:34:20.981Z,31.20
2019-02-21T23:36:48.655Z,30.60
2019-02-21T23:39:16.680Z,30.50
2019-02-21T23:41:44.629Z,30.27
2019-02-21T23:44:12.625Z,30.97
2019-02-21T23:46:40.662Z,31.87
2019-02-21T23:49:08.968Z,31.90
2019-02-21T23:51:36.909Z,30.60
2019-02-21T23:54:05.003Z,31.70
2019-02-21T23:56:32.980Z,33.70
2019-02-21T23:59:00.636Z,32.43
